sensor_id;sensor_type;location;lat;lon;timestamp;pressure;altitude;pressure_sealevel;temperature;humidity
3524;BME280;1776;53.330;11.498;2024-03-08T00:01:59;23981.47;;;-147.39;69.79
3524;BME280;1776;53.330;11.498;2024-03-08T00:04:24;23953.00;;;-147.39;70.06
3524;BME280;1776;53.330;11.498;2024-03-08T00:06:50;23942.84;;;-147.39;70.32
3524;BME280;1776;53.330;11.498;2024-03-08T00:09:15;23975.38;;;-147.39;70.68
3524;BME280;1776;53.330;11.498;2024-03-08T00:11:41;23977.41;;;-147.39;70.37
3524;BME280;1776;53.330;11.498;2024-03-08T00:14:06;23963.19;;;-147.39;70.27
3524;BME280;1776;53.330;11.498;2024-03-08T00:16:33;23965.22;;;-147.39;70.27
3524;BME280;1776;53.330;11.498;2024-03-08T00:18:59;23953.00;;;-147.39;70.32
3524;BME280;1776;53.330;11.498;2024-03-08T00:21:24;23969.28;;;-147.39;70.35
3524;BME280;1776;53.330;11.498;2024-03-08T00:23:49;24011.97;;;-147.39;70.80
3524;BME280;1776;53.330;11.498;2024-03-08T00:26:15;23930.66;;;-147.39;70.75
3524;BME280;1776;53.330;11.498;2024-03-08T00:28:40;23961.16;;;-147.39;71.16
3524;BME280;1776;53.330;11.498;2024-03-08T00:31:05;23924.56;;;-147.39;71.21
3524;BME280;1776;53.330;11.498;2024-03-08T00:33:32;23948.94;;;-147.39;71.16
3524;BME280;1776;53.330;11.498;2024-03-08T00:35:57;23920.47;;;-147.39;71.23
3524;BME280;1776;53.330;11.498;2024-03-08T00:38:22;23916.41;;;-147.39;71.35
3524;BME280;1776;53.330;11.498;2024-03-08T00:40:48;23924.56;;;-147.39;71.90
3524;BME280;1776;53.330;11.498;2024-03-08T00:43:13;23896.09;;;-147.39;71.71
3524;BME280;1776;53.330;11.498;2024-03-08T00:45:38;23942.84;;;-147.39;71.59
3524;BME280;1776;53.330;11.498;2024-03-08T00:48:04;23922.50;;;-147.39;71.40
3524;BME280;1776;53.330;11.498;2024-03-08T00:50:30;23906.25;;;-147.39;71.82
3524;BME280;1776;53.330;11.498;2024-03-08T00:52:56;23700.91;;;-147.39;71.90
3524;BME280;1776;53.330;11.498;2024-03-08T00:55:21;23906.25;;;-147.39;71.73
3524;BME280;1776;53.330;11.498;2024-03-08T00:57:46;23875.75;;;-147.39;71.82
3524;BME280;1776;53.330;11.498;2024-03-08T01:00:12;23894.06;;;-147.39;72.14
3524;BME280;1776;53.330;11.498;2024-03-08T01:02:38;23892.03;;;-147.39;71.73
3524;BME280;1776;53.330;11.498;2024-03-08T01:05:04;23902.19;;;-147.39;72.49
3524;BME280;1776;53.330;11.498;2024-03-08T01:07:32;23867.63;;;-147.39;72.56
3524;BME280;1776;53.330;11.498;2024-03-08T01:09:58;23859.50;;;-147.39;72.49
3524;BME280;1776;53.330;11.498;2024-03-08T01:12:23;23900.16;;;-147.39;72.21
3524;BME280;1776;53.330;11.498;2024-03-08T01:14:48;23906.25;;;-147.39;71.76
3524;BME280;1776;53.330;11.498;2024-03-08T01:17:13;23881.84;;;-147.39;72.32
3524;BME280;1776;53.330;11.498;2024-03-08T01:19:39;23883.88;;;-147.39;72.43
3524;BME280;1776;53.330;11.498;2024-03-08T01:22:04;23831.03;;;-147.39;72.58
3524;BME280;1776;53.330;11.498;2024-03-08T01:24:29;23904.22;;;-147.39;73.12
3524;BME280;1776;53.330;11.498;2024-03-08T01:26:54;23841.19;;;-147.39;73.05
3524;BME280;1776;53.330;11.498;2024-03-08T01:29:20;23855.41;;;-147.39;72.77
3524;BME280;1776;53.330;11.498;2024-03-08T01:31:45;23845.25;;;-147.39;72.82
3524;BME280;1776;53.330;11.498;2024-03-08T01:34:10;23829.00;;;-147.39;72.84
3524;BME280;1776;53.330;11.498;2024-03-08T01:36:36;23833.06;;;-147.39;72.64
3524;BME280;1776;53.330;11.498;2024-03-08T01:39:02;23940.81;;;-147.39;72.93
3524;BME280;1776;53.330;11.498;2024-03-08T01:41:33;23855.41;;;-147.39;72.85
3524;BME280;1776;53.330;11.498;2024-03-08T01:43:58;23826.97;;;-147.39;73.09
3524;BME280;1776;53.330;11.498;2024-03-08T01:46:24;23820.84;;;-147.39;73.50
3524;BME280;1776;53.330;11.498;2024-03-08T01:48:49;23831.03;;;-147.39;73.35
3524;BME280;1776;53.330;11.498;2024-03-08T01:51:16;23802.56;;;-147.39;73.55
3524;BME280;1776;53.330;11.498;2024-03-08T01:53:42;23845.25;;;-147.39;73.12
3524;BME280;1776;53.330;11.498;2024-03-08T01:56:10;23810.69;;;-147.39;73.40
3524;BME280;1776;53.330;11.498;2024-03-08T01:58:38;23822.88;;;-147.39;73.44
3524;BME280;1776;53.330;11.498;2024-03-08T02:01:04;23824.94;;;-147.39;73.64
3524;BME280;1776;53.330;11.498;2024-03-08T02:03:30;23804.59;;;-147.39;73.84
3524;BME280;1776;53.330;11.498;2024-03-08T02:05:57;23808.66;;;-147.39;73.25
3524;BME280;1776;53.330;11.498;2024-03-08T02:08:24;23784.25;;;-147.39;73.35
3524;BME280;1776;53.330;11.498;2024-03-08T02:10:49;23808.66;;;-147.39;73.48
3524;BME280;1776;53.330;11.498;2024-03-08T02:13:16;23826.97;;;-147.39;74.04
3524;BME280;1776;53.330;11.498;2024-03-08T02:15:54;23792.41;;;-147.39;73.84
3524;BME280;1776;53.330;11.498;2024-03-08T02:18:19;23776.13;;;-147.39;74.32
3524;BME280;1776;53.330;11.498;2024-03-08T02:20:50;23784.25;;;-147.39;74.11
3524;BME280;1776;53.330;11.498;2024-03-08T02:23:16;23806.63;;;-147.39;74.24
3524;BME280;1776;53.330;11.498;2024-03-08T02:25:42;23804.59;;;-147.39;74.35
3524;BME280;1776;53.330;11.498;2024-03-08T02:28:09;23774.09;;;-147.39;74.61
3524;BME280;1776;53.330;11.498;2024-03-08T02:30:35;23774.09;;;-147.39;74.79
3524;BME280;1776;53.330;11.498;2024-03-08T02:33:01;23719.19;;;-147.39;74.88
3524;BME280;1776;53.330;11.498;2024-03-08T02:35:26;23765.97;;;-147.39;74.95
3524;BME280;1776;53.330;11.498;2024-03-08T02:37:51;23788.31;;;-147.39;75.01
3524;BME280;1776;53.330;11.498;2024-03-08T02:40:16;23743.59;;;-147.39;75.45
3524;BME280;1776;53.330;11.498;2024-03-08T02:42:42;23745.63;;;-147.39;75.20
3524;BME280;1776;53.330;11.498;2024-03-08T02:45:08;23745.63;;;-147.39;75.39
3524;BME280;1776;53.330;11.498;2024-03-08T02:47:35;23747.66;;;-147.39;75.45
3524;BME280;1776;53.330;11.498;2024-03-08T02:50:00;23729.38;;;-147.39;76.00
3524;BME280;1776;53.330;11.498;2024-03-08T02:52:26;23729.38;;;-147.39;76.30
3524;BME280;1776;53.330;11.498;2024-03-08T02:54:52;23711.06;;;-147.39;75.83
3524;BME280;1776;53.330;11.498;2024-03-08T02:57:17;23684.63;;;-147.39;75.86
3524;BME280;1776;53.330;11.498;2024-03-08T02:59:43;23757.84;;;-147.39;76.22
3524;BME280;1776;53.330;11.498;2024-03-08T03:02:09;23753.75;;;-147.39;75.73
3524;BME280;1776;53.330;11.498;2024-03-08T03:04:35;23700.91;;;-147.39;76.14
3524;BME280;1776;53.330;11.498;2024-03-08T03:07:00;23696.84;;;-147.39;75.94
3524;BME280;1776;53.330;11.498;2024-03-08T03:09:26;23719.19;;;-147.39;75.96
3524;BME280;1776;53.330;11.498;2024-03-08T03:11:53;23729.38;;;-147.39;76.11
3524;BME280;1776;53.330;11.498;2024-03-08T03:14:20;23719.19;;;-147.39;75.92
3524;BME280;1776;53.330;11.498;2024-03-08T03:16:46;23709.03;;;-147.39;75.67
3524;BME280;1776;53.330;11.498;2024-03-08T03:19:11;23670.41;;;-147.39;76.21
3524;BME280;1776;53.330;11.498;2024-03-08T03:21:36;23711.06;;;-147.39;76.10
3524;BME280;1776;53.330;11.498;2024-03-08T03:24:03;23719.19;;;-147.39;76.09
3524;BME280;1776;53.330;11.498;2024-03-08T03:26:29;23680.56;;;-147.39;76.24
3524;BME280;1776;53.330;11.498;2024-03-08T03:28:56;23704.97;;;-147.39;76.04
3524;BME280;1776;53.330;11.498;2024-03-08T03:31:22;23715.13;;;-147.39;76.25
3524;BME280;1776;53.330;11.498;2024-03-08T03:33:49;23688.72;;;-147.39;75.92
3524;BME280;1776;53.330;11.498;2024-03-08T03:36:17;23696.84;;;-147.39;76.36
3524;BME280;1776;53.330;11.498;2024-03-08T03:38:43;23692.78;;;-147.39;76.05
3524;BME280;1776;53.330;11.498;2024-03-08T03:41:08;23676.50;;;-147.39;76.06
3524;BME280;1776;53.330;11.498;2024-03-08T03:43:37;23684.63;;;-147.39;75.75
3524;BME280;1776;53.330;11.498;2024-03-08T03:46:07;23702.94;;;-147.39;76.50
3524;BME280;1776;53.330;11.498;2024-03-08T03:48:32;23666.34;;;-147.39;76.18
3524;BME280;1776;53.330;11.498;2024-03-08T03:50:58;23702.94;;;-147.39;75.90
3524;BME280;1776;53.330;11.498;2024-03-08T03:53:23;23721.25;;;-147.39;76.43
3524;BME280;1776;53.330;11.498;2024-03-08T03:55:51;23696.84;;;-147.39;76.09
3524;BME280;1776;53.330;11.498;2024-03-08T03:58:16;23719.19;;;-147.39;75.87
3524;BME280;1776;53.330;11.498;2024-03-08T04:00:41;23713.09;;;-147.39;75.85
3524;BME280;1776;53.330;11.498;2024-03-08T04:03:08;23700.91;;;-147.39;75.74
3524;BME280;1776;53.330;11.498;2024-03-08T04:05:33;23650.09;;;-147.39;75.99
3524;BME280;1776;53.330;11.498;2024-03-08T04:07:59;23666.34;;;-147.39;76.28
3524;BME280;1776;53.330;11.498;2024-03-08T04:10:24;23660.25;;;-147.39;76.17
3524;BME280;1776;53.330;11.498;2024-03-08T04:12:50;23688.72;;;-147.39;76.73
3524;BME280;1776;53.330;11.498;2024-03-08T04:15:15;23702.94;;;-147.39;77.03
3524;BME280;1776;53.330;11.498;2024-03-08T04:17:40;23662.28;;;-147.39;76.84
3524;BME280;1776;53.330;11.498;2024-03-08T04:20:06;23664.31;;;-147.39;76.90
3524;BME280;1776;53.330;11.498;2024-03-08T04:22:39;23652.13;;;-147.39;76.73
3524;BME280;1776;53.330;11.498;2024-03-08T04:25:05;23629.75;;;-147.39;77.04
3524;BME280;1776;53.330;11.498;2024-03-08T04:27:32;23650.09;;;-147.39;77.23
3524;BME280;1776;53.330;11.498;2024-03-08T04:29:58;23662.28;;;-147.39;77.14
3524;BME280;1776;53.330;11.498;2024-03-08T04:32:23;23662.28;;;-147.39;76.61
3524;BME280;1776;53.330;11.498;2024-03-08T04:34:48;23666.34;;;-147.39;77.11
3524;BME280;1776;53.330;11.498;2024-03-08T04:37:14;23666.34;;;-147.39;76.95
3524;BME280;1776;53.330;11.498;2024-03-08T04:39:39;23593.16;;;-147.39;77.21
3524;BME280;1776;53.330;11.498;2024-03-08T04:42:05;23635.84;;;-147.39;76.84
3524;BME280;1776;53.330;11.498;2024-03-08T04:44:35;23623.66;;;-147.39;77.28
3524;BME280;1776;53.330;11.498;2024-03-08T04:47:01;23668.38;;;-147.39;77.21
3524;BME280;1776;53.330;11.498;2024-03-08T04:49:26;23646.00;;;-147.39;77.59
3524;BME280;1776;53.330;11.498;2024-03-08T04:51:53;23635.84;;;-147.39;77.54
3524;BME280;1776;53.330;11.498;2024-03-08T04:54:18;23646.00;;;-147.39;77.50
3524;BME280;1776;53.330;11.498;2024-03-08T04:56:43;23650.09;;;-147.39;77.76
3524;BME280;1776;53.330;11.498;2024-03-08T04:59:09;23641.94;;;-147.39;77.71
3524;BME280;1776;53.330;11.498;2024-03-08T05:01:34;23633.81;;;-147.39;77.71
3524;BME280;1776;53.330;11.498;2024-03-08T05:04:03;23650.09;;;-147.39;77.56
3524;BME280;1776;53.330;11.498;2024-03-08T05:06:28;23607.38;;;-147.39;77.31
3524;BME280;1776;53.330;11.498;2024-03-08T05:08:55;23639.91;;;-147.39;77.42
3524;BME280;1776;53.330;11.498;2024-03-08T05:11:20;23627.72;;;-147.39;77.57
3524;BME280;1776;53.330;11.498;2024-03-08T05:13:46;23623.66;;;-147.39;77.63
3524;BME280;1776;53.330;11.498;2024-03-08T05:16:11;23597.22;;;-147.39;77.46
3524;BME280;1776;53.330;11.498;2024-03-08T05:18:37;23593.16;;;-147.39;78.08
3524;BME280;1776;53.330;11.498;2024-03-08T05:21:02;23587.06;;;-147.39;77.50
3524;BME280;1776;53.330;11.498;2024-03-08T05:23:29;23611.44;;;-147.39;77.71
3524;BME280;1776;53.330;11.498;2024-03-08T05:25:55;23613.47;;;-147.39;78.00
3524;BME280;1776;53.330;11.498;2024-03-08T05:28:20;23587.06;;;-147.39;77.95
3524;BME280;1776;53.330;11.498;2024-03-08T05:30:46;23629.75;;;-147.39;78.21
3524;BME280;1776;53.330;11.498;2024-03-08T05:33:11;23593.16;;;-147.39;78.31
3524;BME280;1776;53.330;11.498;2024-03-08T05:35:39;23576.88;;;-147.39;77.99
3524;BME280;1776;53.330;11.498;2024-03-08T05:38:05;23576.88;;;-147.39;78.47
3524;BME280;1776;53.330;11.498;2024-03-08T05:40:30;23580.97;;;-147.39;78.49
3524;BME280;1776;53.330;11.498;2024-03-08T05:42:57;23593.16;;;-147.39;78.07
3524;BME280;1776;53.330;11.498;2024-03-08T05:45:23;23599.25;;;-147.39;78.18
3524;BME280;1776;53.330;11.498;2024-03-08T05:47:50;23580.97;;;-147.39;78.46
3524;BME280;1776;53.330;11.498;2024-03-08T05:50:17;23597.22;;;-147.39;78.26
3524;BME280;1776;53.330;11.498;2024-03-08T05:52:42;23546.41;;;-147.39;78.59
3524;BME280;1776;53.330;11.498;2024-03-08T05:55:08;23556.56;;;-147.39;78.47
3524;BME280;1776;53.330;11.498;2024-03-08T05:57:34;23593.16;;;-147.39;78.49
3524;BME280;1776;53.330;11.498;2024-03-08T06:00:03;23568.75;;;-147.39;78.01
3524;BME280;1776;53.330;11.498;2024-03-08T06:02:28;23536.22;;;-147.39;78.43
3524;BME280;1776;53.330;11.498;2024-03-08T06:04:54;23566.72;;;-147.39;78.03
3524;BME280;1776;53.330;11.498;2024-03-08T06:07:19;23629.75;;;-147.39;77.94
3524;BME280;1776;53.330;11.498;2024-03-08T06:09:45;23556.56;;;-147.39;78.03
3524;BME280;1776;53.330;11.498;2024-03-08T06:12:11;23607.38;;;-147.39;77.46
3524;BME280;1776;53.330;11.498;2024-03-08T06:14:37;23617.56;;;-147.39;77.47
3524;BME280;1776;53.330;11.498;2024-03-08T06:17:03;23597.22;;;-147.39;78.09
3524;BME280;1776;53.330;11.498;2024-03-08T06:19:30;23578.94;;;-147.39;78.04
3524;BME280;1776;53.330;11.498;2024-03-08T06:21:55;23580.97;;;-147.39;78.74
3524;BME280;1776;53.330;11.498;2024-03-08T06:24:20;23591.13;;;-147.39;78.46
3524;BME280;1776;53.330;11.498;2024-03-08T06:26:46;23538.25;;;-147.39;78.32
3524;BME280;1776;53.330;11.498;2024-03-08T06:29:11;23595.19;;;-147.39;78.08
3524;BME280;1776;53.330;11.498;2024-03-08T06:31:37;23544.38;;;-147.39;77.97
3524;BME280;1776;53.330;11.498;2024-03-08T06:34:04;23585.03;;;-147.39;78.31
3524;BME280;1776;53.330;11.498;2024-03-08T06:36:32;23560.63;;;-147.39;78.26
3524;BME280;1776;53.330;11.498;2024-03-08T06:38:57;23603.31;;;-147.39;78.33
3524;BME280;1776;53.330;11.498;2024-03-08T06:41:23;23554.53;;;-147.39;78.35
3524;BME280;1776;53.330;11.498;2024-03-08T06:43:48;23574.84;;;-147.39;78.59
3524;BME280;1776;53.330;11.498;2024-03-08T06:46:17;23560.63;;;-147.39;78.39
3524;BME280;1776;53.330;11.498;2024-03-08T06:48:42;23546.41;;;-147.39;78.68
3524;BME280;1776;53.330;11.498;2024-03-08T06:51:08;23550.47;;;-147.39;78.53
3524;BME280;1776;53.330;11.498;2024-03-08T06:53:33;23548.44;;;-147.39;78.95
3524;BME280;1776;53.330;11.498;2024-03-08T06:56:00;23568.75;;;-147.39;78.41
3524;BME280;1776;53.330;11.498;2024-03-08T06:58:26;23576.88;;;-147.39;78.58
3524;BME280;1776;53.330;11.498;2024-03-08T07:00:51;23556.56;;;-147.39;78.93
3524;BME280;1776;53.330;11.498;2024-03-08T07:03:20;23542.34;;;-147.39;78.85
3524;BME280;1776;53.330;11.498;2024-03-08T07:05:47;23532.16;;;-147.39;78.51
3524;BME280;1776;53.330;11.498;2024-03-08T07:08:12;23570.78;;;-147.39;79.00
3524;BME280;1776;53.330;11.498;2024-03-08T07:10:39;23560.63;;;-147.39;78.84
3524;BME280;1776;53.330;11.498;2024-03-08T07:13:06;23534.19;;;-147.39;78.77
3524;BME280;1776;53.330;11.498;2024-03-08T07:15:32;23542.34;;;-147.39;79.13
3524;BME280;1776;53.330;11.498;2024-03-08T07:17:57;23528.09;;;-147.39;79.06
3524;BME280;1776;53.330;11.498;2024-03-08T07:20:24;23558.59;;;-147.39;78.82
3524;BME280;1776;53.330;11.498;2024-03-08T07:22:50;23536.22;;;-147.39;79.23
3524;BME280;1776;53.330;11.498;2024-03-08T07:25:19;23552.50;;;-147.39;79.01
3524;BME280;1776;53.330;11.498;2024-03-08T07:27:54;23530.13;;;-147.39;78.93
3524;BME280;1776;53.330;11.498;2024-03-08T07:30:25;23550.47;;;-147.39;78.36
3524;BME280;1776;53.330;11.498;2024-03-08T07:33:09;23554.53;;;-147.39;78.55
3524;BME280;1776;53.330;11.498;2024-03-08T07:35:37;23574.84;;;-147.39;78.74
3524;BME280;1776;53.330;11.498;2024-03-08T07:38:06;23578.94;;;-147.39;78.53
3524;BME280;1776;53.330;11.498;2024-03-08T07:40:39;23576.88;;;-147.39;78.30
3524;BME280;1776;53.330;11.498;2024-03-08T07:43:11;23591.13;;;-147.39;78.80
3524;BME280;1776;53.330;11.498;2024-03-08T07:45:39;23578.94;;;-147.39;78.31
3524;BME280;1776;53.330;11.498;2024-03-08T07:48:05;23589.09;;;-147.39;77.96
3524;BME280;1776;53.330;11.498;2024-03-08T07:50:38;23589.09;;;-147.39;77.97
3524;BME280;1776;53.330;11.498;2024-03-08T07:53:10;23572.81;;;-147.39;78.26
3524;BME280;1776;53.330;11.498;2024-03-08T07:55:36;23593.16;;;-147.39;77.70
3524;BME280;1776;53.330;11.498;2024-03-08T07:58:02;23585.03;;;-147.39;78.18
3524;BME280;1776;53.330;11.498;2024-03-08T08:00:28;23591.13;;;-147.39;78.47
3524;BME280;1776;53.330;11.498;2024-03-08T08:02:53;23650.09;;;-147.39;77.34
3524;BME280;1776;53.330;11.498;2024-03-08T08:05:19;23707.00;;;-147.39;75.14
3524;BME280;1776;53.330;11.498;2024-03-08T08:07:45;23747.66;;;-147.39;72.51
3524;BME280;1776;53.330;11.498;2024-03-08T08:10:12;23822.88;;;-147.39;70.03
3524;BME280;1776;53.330;11.498;2024-03-08T08:12:46;23908.28;;;-147.39;67.31
3524;BME280;1776;53.330;11.498;2024-03-08T08:15:12;24007.91;;;-147.39;65.43
3524;BME280;1776;53.330;11.498;2024-03-08T08:17:38;24020.09;;;-147.39;64.37
3524;BME280;1776;53.330;11.498;2024-03-08T08:20:04;24085.19;;;-147.39;62.06
3524;BME280;1776;53.330;11.498;2024-03-08T08:22:30;24144.13;;;-147.39;60.84
3524;BME280;1776;53.330;11.498;2024-03-08T08:24:56;24237.66;;;-147.39;60.28
3524;BME280;1776;53.330;11.498;2024-03-08T08:27:21;24278.34;;;-147.39;59.31
3524;BME280;1776;53.330;11.498;2024-03-08T08:29:46;24310.88;;;-147.39;58.16
3524;BME280;1776;53.330;11.498;2024-03-08T08:32:11;24367.81;;;-147.39;57.31
3524;BME280;1776;53.330;11.498;2024-03-08T08:34:37;24473.53;;;-147.39;56.31
3524;BME280;1776;53.330;11.498;2024-03-08T08:37:02;24479.66;;;-147.39;55.36
3524;BME280;1776;53.330;11.498;2024-03-08T08:39:27;24575.22;;;-147.39;53.93
3524;BME280;1776;53.330;11.498;2024-03-08T08:41:52;24634.19;;;-147.39;52.80
3524;BME280;1776;53.330;11.498;2024-03-08T08:44:18;24646.41;;;-147.39;51.84
3524;BME280;1776;53.330;11.498;2024-03-08T08:46:43;24719.59;;;-147.39;51.15
3524;BME280;1776;53.330;11.498;2024-03-08T08:49:08;24794.84;;;-147.39;51.07
3524;BME280;1776;53.330;11.498;2024-03-08T08:51:39;24829.41;;;-147.39;48.73
3524;BME280;1776;53.330;11.498;2024-03-08T08:54:05;24861.97;;;-147.39;48.04
3524;BME280;1776;53.330;11.498;2024-03-08T08:56:31;24933.13;;;-147.39;47.99
3524;BME280;1776;53.330;11.498;2024-03-08T08:58:57;24906.69;;;-147.39;47.49
3524;BME280;1776;53.330;11.498;2024-03-08T09:01:23;24983.97;;;-147.39;46.38
3524;BME280;1776;53.330;11.498;2024-03-08T09:03:48;25038.88;;;-147.39;44.86
3524;BME280;1776;53.330;11.498;2024-03-08T09:06:15;25122.28;;;-147.39;45.04
3524;BME280;1776;53.330;11.498;2024-03-08T09:08:41;25171.09;;;-147.39;43.15
3524;BME280;1776;53.330;11.498;2024-03-08T09:11:07;25268.72;;;-147.39;41.34
3524;BME280;1776;53.330;11.498;2024-03-08T09:13:33;25376.50;;;-147.39;40.16
3524;BME280;1776;53.330;11.498;2024-03-08T09:16:02;25437.53;;;-147.39;39.66
3524;BME280;1776;53.330;11.498;2024-03-08T09:18:28;25571.78;;;-147.39;39.83
3524;BME280;1776;53.330;11.498;2024-03-08T09:20:53;25675.50;;;-147.39;38.97
3524;BME280;1776;53.330;11.498;2024-03-08T09:23:21;25618.56;;;-147.39;38.57
3524;BME280;1776;53.330;11.498;2024-03-08T09:25:47;25592.13;;;-147.39;39.22
3524;BME280;1776;53.330;11.498;2024-03-08T09:28:12;25675.50;;;-147.39;38.56
3524;BME280;1776;53.330;11.498;2024-03-08T09:30:38;25606.34;;;-147.39;37.74
3524;BME280;1776;53.330;11.498;2024-03-08T09:33:07;25606.34;;;-147.39;37.49
3524;BME280;1776;53.330;11.498;2024-03-08T09:35:33;25632.78;;;-147.39;36.81
3524;BME280;1776;53.330;11.498;2024-03-08T09:37:58;25718.22;;;-147.39;37.88
3524;BME280;1776;53.330;11.498;2024-03-08T09:40:24;25856.53;;;-147.39;35.99
3524;BME280;1776;53.330;11.498;2024-03-08T09:42:51;25824.00;;;-147.39;36.34
3524;BME280;1776;53.330;11.498;2024-03-08T09:45:19;25525.00;;;-147.39;37.97
3524;BME280;1776;53.330;11.498;2024-03-08T09:47:46;25868.75;;;-147.39;36.04
3524;BME280;1776;53.330;11.498;2024-03-08T09:50:14;25935.88;;;-147.39;35.64
3524;BME280;1776;53.330;11.498;2024-03-08T09:52:40;25923.69;;;-147.39;35.12
3524;BME280;1776;53.330;11.498;2024-03-08T09:55:06;25929.78;;;-147.39;35.36
3524;BME280;1776;53.330;11.498;2024-03-08T09:57:36;25982.66;;;-147.39;35.90
3524;BME280;1776;53.330;11.498;2024-03-08T10:00:01;25883.00;;;-147.39;36.21
3524;BME280;1776;53.330;11.498;2024-03-08T10:02:32;25844.34;;;-147.39;35.79
3524;BME280;1776;53.330;11.498;2024-03-08T10:05:00;25939.94;;;-147.39;36.15
3524;BME280;1776;53.330;11.498;2024-03-08T10:07:28;25929.78;;;-147.39;36.04
3524;BME280;1776;53.330;11.498;2024-03-08T10:09:53;25773.16;;;-147.39;37.07
3524;BME280;1776;53.330;11.498;2024-03-08T10:12:19;25923.69;;;-147.39;36.40
3524;BME280;1776;53.330;11.498;2024-03-08T10:14:45;25901.31;;;-147.39;36.76
3524;BME280;1776;53.330;11.498;2024-03-08T10:17:11;25762.97;;;-147.39;38.14
3524;BME280;1776;53.330;11.498;2024-03-08T10:19:36;25738.56;;;-147.39;37.73
3524;BME280;1776;53.330;11.498;2024-03-08T10:22:02;25795.53;;;-147.39;37.91
3524;BME280;1776;53.330;11.498;2024-03-08T10:24:29;25760.94;;;-147.39;37.73
3524;BME280;1776;53.330;11.498;2024-03-08T10:27:03;25722.28;;;-147.39;36.97
3524;BME280;1776;53.330;11.498;2024-03-08T10:29:31;25640.94;;;-147.39;38.64
3524;BME280;1776;53.330;11.498;2024-03-08T10:31:56;25567.69;;;-147.39;38.94
3524;BME280;1776;53.330;11.498;2024-03-08T10:34:23;25510.75;;;-147.39;38.29
3524;BME280;1776;53.330;11.498;2024-03-08T10:36:50;25500.59;;;-147.39;39.67
3524;BME280;1776;53.330;11.498;2024-03-08T10:39:22;25539.22;;;-147.39;40.20
3524;BME280;1776;53.330;11.498;2024-03-08T10:41:53;25459.91;;;-147.39;39.78
3524;BME280;1776;53.330;11.498;2024-03-08T10:47:00;25396.84;;;-147.39;39.96
3524;BME280;1776;53.330;11.498;2024-03-08T10:49:31;25398.88;;;-147.39;41.24
3524;BME280;1776;53.330;11.498;2024-03-08T10:52:03;25321.59;;;-147.39;41.06
3524;BME280;1776;53.330;11.498;2024-03-08T10:54:31;25366.34;;;-147.39;40.78
3524;BME280;1776;53.330;11.498;2024-03-08T10:56:57;25362.28;;;-147.39;39.71
3524;BME280;1776;53.330;11.498;2024-03-08T10:59:24;25309.38;;;-147.39;41.72
3524;BME280;1776;53.330;11.498;2024-03-08T11:01:52;25350.06;;;-147.39;40.25
3524;BME280;1776;53.330;11.498;2024-03-08T11:04:17;25313.47;;;-147.39;41.96
3524;BME280;1776;53.330;11.498;2024-03-08T11:06:47;25323.63;;;-147.39;42.42
3524;BME280;1776;53.330;11.498;2024-03-08T11:09:30;25354.13;;;-147.39;40.74
3524;BME280;1776;53.330;11.498;2024-03-08T11:12:28;25343.97;;;-147.39;40.27
3524;BME280;1776;53.330;11.498;2024-03-08T11:15:01;25370.41;;;-147.39;42.07
3524;BME280;1776;53.330;11.498;2024-03-08T11:19:58;25411.09;;;-147.39;40.46
3524;BME280;1776;53.330;11.498;2024-03-08T11:22:33;25455.84;;;-147.39;39.88
3524;BME280;1776;53.330;11.498;2024-03-08T11:25:01;25457.88;;;-147.39;40.05
3524;BME280;1776;53.330;11.498;2024-03-08T11:27:30;25478.22;;;-147.39;39.54
3524;BME280;1776;53.330;11.498;2024-03-08T11:30:03;25482.28;;;-147.39;40.12
3524;BME280;1776;53.330;11.498;2024-03-08T11:32:44;25551.44;;;-147.39;39.23
3524;BME280;1776;53.330;11.498;2024-03-08T11:35:20;25516.84;;;-147.39;38.72
3524;BME280;1776;53.330;11.498;2024-03-08T11:37:46;25508.72;;;-147.39;39.66
3524;BME280;1776;53.330;11.498;2024-03-08T11:40:12;25555.50;;;-147.39;39.33
3524;BME280;1776;53.330;11.498;2024-03-08T11:42:44;25586.00;;;-147.39;38.53
3524;BME280;1776;53.330;11.498;2024-03-08T11:45:11;25573.81;;;-147.39;38.54
3524;BME280;1776;53.330;11.498;2024-03-08T11:47:37;25632.78;;;-147.39;38.32
3524;BME280;1776;53.330;11.498;2024-03-08T11:50:06;25665.34;;;-147.39;38.41
3524;BME280;1776;53.330;11.498;2024-03-08T11:52:35;25630.75;;;-147.39;37.99
3524;BME280;1776;53.330;11.498;2024-03-08T11:55:01;25691.78;;;-147.39;37.99
3524;BME280;1776;53.330;11.498;2024-03-08T11:57:26;25638.91;;;-147.39;37.81
3524;BME280;1776;53.330;11.498;2024-03-08T11:59:54;25671.44;;;-147.39;36.77
3524;BME280;1776;53.330;11.498;2024-03-08T12:02:22;25683.66;;;-147.39;37.02
3524;BME280;1776;53.330;11.498;2024-03-08T12:04:56;25681.63;;;-147.39;35.86
3524;BME280;1776;53.330;11.498;2024-03-08T12:07:21;25665.34;;;-147.39;36.41
3524;BME280;1776;53.330;11.498;2024-03-08T12:10:19;25703.97;;;-147.39;35.60
3524;BME280;1776;53.330;11.498;2024-03-08T12:12:57;25730.44;;;-147.39;37.21
3524;BME280;1776;53.330;11.498;2024-03-08T12:15:24;25708.06;;;-147.39;37.12
3524;BME280;1776;53.330;11.498;2024-03-08T12:17:52;25752.81;;;-147.39;37.28
3524;BME280;1776;53.330;11.498;2024-03-08T12:20:20;25701.94;;;-147.39;37.13
3524;BME280;1776;53.330;11.498;2024-03-08T12:22:49;25695.84;;;-147.39;36.55
3524;BME280;1776;53.330;11.498;2024-03-08T12:25:17;25742.63;;;-147.39;35.88
3524;BME280;1776;53.330;11.498;2024-03-08T12:27:43;25746.69;;;-147.39;36.55
3524;BME280;1776;53.330;11.498;2024-03-08T12:35:14;25750.78;;;-147.39;36.47
3524;BME280;1776;53.330;11.498;2024-03-08T12:37:39;25791.44;;;-147.39;36.65
3524;BME280;1776;53.330;11.498;2024-03-08T12:40:07;25805.69;;;-147.39;35.90
3524;BME280;1776;53.330;11.498;2024-03-08T12:42:33;25844.34;;;-147.39;36.06
3524;BME280;1776;53.330;11.498;2024-03-08T12:44:59;25824.00;;;-147.39;35.67
3524;BME280;1776;53.330;11.498;2024-03-08T12:47:25;25765.00;;;-147.39;34.58
3524;BME280;1776;53.330;11.498;2024-03-08T12:49:54;25779.25;;;-147.39;35.93
3524;BME280;1776;53.330;11.498;2024-03-08T12:52:20;25807.72;;;-147.39;34.79
3524;BME280;1776;53.330;11.498;2024-03-08T12:54:45;25815.88;;;-147.39;34.94
3524;BME280;1776;53.330;11.498;2024-03-08T12:57:12;25803.66;;;-147.39;34.11
3524;BME280;1776;53.330;11.498;2024-03-08T12:59:37;25799.59;;;-147.39;35.32